Create Custom Reports and Graphics: Custom Report

Lower Lake

Current Conditions

11/28/22 2:45 AM (-08:00)
Updated Every 15 Minutes
Temp 42.3 °F   7.3
WindChill 40.2 °F
Daily Min Temp 41.4 °F   7.5
Time of Min Temp 0231
Daily Max Temp 49.4 °F   11.6
Time of Max Temp 0001
Wind Spd 3.7 mph   2.0
Wind Dir SW | 232 °
Wind Gust 7.7 mph   3.6
Daily Max Wind 16.2 mph   11.2
Time of Max Wind 0051
Max Wind Dir W | 273 °
RH 77 %   3
Dew Pt 35.5 °F   6.3
Daily Rain 0.00 In
Yest MinT 31.8 °F
Yest MaxT 64.3 °F
Yest MaxGst 17.0 mph
Yest Precip 0.00 In
Month Precip 1.50 In
Season Precip 3.47 In
BatVolt 12.8 V   0.0
Sorry, this report could not be generated.

Last 365 Observations

Lower Lake

Daily Data | America/Los_Angeles
as of 11/28/22 2:56 AM PST
Date Daily Max Temp (°F) Time of Max Temp Daily Min Temp (°F) Time of Min Temp Daily Rain (In) Month Precip (In) Season Precip (In) Daily Max Wind (mph) Time of Max Wind Max Wind Dir (°) Dew Pt (°F) Max RH (%) Min RH (%) Powdery Mildew Stress (pts) Hrs 70-85F (hrs) Hrs > 95F (hrs) Hrs <= 32F (hrs) Hrs <= 28F (hrs) GDDs (DL) Seas GDDs (DL) Chilling <=45F (hrs) Chilling <=45F Seas (hrs) Degree Hrs (hrs) Storm Total (In) Max 1 Min Rain (In) Max 1 Min Rain Time Max 15 Min Rain (In) Max 15 Min Precip Time Max 60 Min Rain (In) Max 60 Min Rain Time MinBV Day (V)
11/27/22 64.3 1429 31.8 0555 0.00 1.50 3.47 17.0 2357 WNW | 283 32.0 91 32 - 0.00 0.00 0.5 0.0 3.5 - 8.7 329 0.0 - - - - - - - 12.5
11/26/22 66.0 1429 37.6 2356 0.00 1.50 3.47 14.7 1143 NNE | 29 29.6 75 23 - 0.00 0.00 0.0 0.0 4.1 - 12.9 321 0.5 - - - - - - - 12.5
11/25/22 66.6 1357 36.3 0605 0.00 1.50 3.47 11.3 1339 E | 86 24.8 60 18 - 0.00 0.00 0.0 0.0 4.1 - 10.8 308 1.3 - - - - - - - 12.6
11/24/22 71.2 1424 40.5 2323 0.00 1.50 3.47 15.7 1011 E | 92 16.1 49 9 - 0.96 0.00 0.0 0.0 7.5 - 2.9 297 26.8 - - - - - - - 12.6
11/23/22 69.9 1414 35.4 0653 0.00 1.50 3.47 11.3 2312 ENE | 73 30.3 96 11 - 0.00 0.00 0.0 0.0 4.7 - 8.3 294 7.0 - - - - - - - 12.5
11/22/22 66.2 1400 32.2 0526 0.00 1.50 3.47 13.2 1812 WNW | 292 32.9 87 31 - 0.00 0.00 0.0 0.0 3.6 - 9.8 286 0.4 - - - - - - - 12.5
11/21/22 64.0 1419 28.9 0449 0.00 1.50 3.47 6.4 1420 NNE | 27 24.1 80 12 - 0.00 0.00 7.2 0.0 2.5 - 14.6 276 0.0 - - - - - - - 12.5
11/20/22 63.4 1457 26.8 0605 0.00 1.50 3.47 7.1 1308 E | 84 21.8 72 19 - 0.00 0.00 8.2 1.8 2.3 - 15.9 261 0.0 - - - - - - - 12.4
11/19/22 62.3 1419 30.5 2344 0.00 1.50 3.47 12.1 0007 NE | 36 15.9 61 12 - 0.00 0.00 2.7 0.0 2.6 - 14.4 246 0.0 - - - - - - - 12.5
11/18/22 64.5 1238 35.1 0710 0.00 1.50 3.47 19.8 1338 NE | 38 22.4 87 13 - 0.00 0.00 0.0 0.0 3.3 - 8.3 231 0.0 - - - - - - - 12.5
11/17/22 65.9 1444 31.5 0523 0.00 1.50 3.47 13.9 1342 WNW | 296 27.4 75 19 - 0.00 0.00 0.4 0.0 3.4 - 13.7 223 0.5 - - - - - - - 12.5
11/16/22 68.2 1429 35.0 0330 0.00 1.50 3.47 11.4 1220 NNE | 20 21.7 62 10 - 0.00 0.00 0.0 0.0 4.0 - 13.8 209 4.9 - - - - - - - 12.5
11/15/22 63.6 1427 32.1 0328 0.00 1.50 3.47 18.5 1039 N | 352 23.2 84 17 - 0.00 0.00 0.0 0.0 4.4 - 7.7 195 0.0 - - - - - - - 12.5
11/14/22 56.1 1348 28.6 0400 0.00 1.50 3.47 13.8 1202 E | 91 27.9 91 32 - 0.00 0.00 5.6 0.0 1.1 - 15.8 188 0.0 - - - - - - - 12.5
11/13/22 59.1 1432 30.6 2322 0.00 1.50 3.47 15.3 0459 N | 350 29.9 100 23 - 0.00 0.00 1.5 0.0 1.3 - 16.0 172 0.0 - - - - - - - 12.5
11/12/22 55.5 1427 33.8 0001 0.00 1.50 3.47 15.8 1508 W | 276 37.2 100 38 - 0.00 0.00 0.0 0.0 0.6 - 14.9 156 0.0 - - - - - - - 12.6
11/11/22 57.2 1443 30.7 0525 0.00 1.50 3.47 8.8 2246 WNW | 301 34.5 100 40 - 0.00 0.00 5.8 0.0 1.1 - 15.0 141 0.0 - - - - - - - 12.5
11/10/22 56.4 1505 30.5 0327 0.00 1.50 3.47 6.4 1149 NNE | 25 34.4 100 36 - 0.00 0.00 2.1 0.0 0.6 - 16.8 126 0.0 - - - - - - - 12.6
11/9/22 53.0 1410 32.7 2359 0.00 1.50 3.47 13.6 0936 WNW | 298 37.2 100 47 - 0.00 0.00 0.0 0.0 0.2 - 15.2 109 0.0 - - - - - - - 12.5
11/8/22 45.7 1430 36.4 1850 0.80 1.50 3.47 13.5 0325 E | 83 39.6 100 84 - 0.00 0.00 0.0 0.0 0.0 - 23.8 94 0.0 1.38 0.01 1658 0.07 0059 0.19 0135 12.5
11/7/22 51.4 1133 33.8 0646 0.20 0.70 2.67 19.4 0015 W | 259 37.6 98 60 - 0.00 0.00 0.0 0.0 0.0 - 19.7 70 0.0 0.58 0.01 2228 0.05 0006 0.08 0029 12.5
11/6/22 57.4 1234 40.6 0418 0.38 0.50 2.47 23.4 2304 W | 275 40.3 98 41 - 0.00 0.00 0.0 0.0 1.3 - 5.5 50 0.0 0.38 0.01 0001 0.07 2244 0.22 2309 12.5
11/5/22 65.6 1411 47.8 2245 0.00 0.12 2.09 16.0 0327 N | 0 49.6 95 60 - 0.00 0.00 0.0 0.0 5.6 - 0.0 45 0.0 - - - - - - - 12.6
11/4/22 63.9 1620 36.5 0531 0.00 0.12 2.09 15.0 1348 WNW | 288 41.5 89 51 - 0.00 0.00 0.0 0.0 5.2 - 7.6 45 0.0 - - - - - - - 12.5
11/3/22 58.3 1535 31.0 0601 0.00 0.12 2.09 10.4 1309 NNE | 15 27.9 94 22 - 0.00 0.00 1.6 0.0 1.1 - 15.5 37 0.0 - - - - - - - 12.5
11/2/22 54.3 1349 35.6 0734 0.00 0.12 2.09 21.5 2007 WNW | 296 34.8 96 42 - 0.00 0.00 0.0 0.0 0.4 - 14.2 22 0.0 - - - - - - - 12.5
11/1/22 52.8 0947 36.6 0055 0.12 0.12 2.09 25.8 1454 W | 263 41.1 98 54 - 0.00 0.00 0.0 0.0 0.4 - 7.6 8 0.0 0.12 0.01 1044 0.05 1015 0.11 1044 12.5
10/31/22 71.3 1555 41.2 0101 0.00 0.00 1.97 12.0 1401 E | 79 37.6 88 25 0 1.83 0.00 0.0 0.0 6.4 3,926 7.8 - 23.2 - - - - - - - 12.5
10/30/22 76.1 1529 40.1 0659 0.00 0.00 1.97 8.4 1835 WSW | 247 37.9 96 16 0 5.32 0.00 0.0 0.0 8.2 3,919 4.9 - 48.1 - - - - - - - 12.5
10/29/22 72.0 1504 37.3 0509 0.00 0.00 1.97 14.3 1822 WSW | 258 36.4 80 22 0 2.34 0.00 0.0 0.0 7.3 3,911 7.3 - 23.3 - - - - - - - 12.5
10/28/22 68.3 1420 36.9 0555 0.00 0.00 1.97 14.1 1843 WSW | 254 31.6 82 21 0 0.00 0.00 0.0 0.0 5.9 3,904 8.8 - 6.7 - - - - - - - 12.5
10/27/22 69.7 1537 35.8 0537 0.00 0.00 1.97 9.3 1148 N | 349 28.5 83 16 0 0.00 0.00 0.0 0.0 5.3 3,898 11.2 - 11.3 - - - - - - - 12.5
10/26/22 65.8 1456 39.5 0056 0.00 0.00 1.97 15.2 0308 WSW | 248 34.1 73 19 0 0.00 0.00 0.0 0.0 4.9 3,893 3.0 - 0.0 - - - - - - - 12.5
10/25/22 69.4 1500 46.3 0647 0.00 0.00 1.97 20.5 0020 W | 270 39.6 94 24 0 0.00 0.00 0.0 0.0 8.2 3,888 0.0 - 12.2 - - - - - - - 12.6
10/24/22 74.4 1523 39.0 0657 0.00 0.00 1.97 18.5 2355 W | 268 38.1 80 17 0 3.33 0.00 0.0 0.0 9.0 3,880 5.9 - 30.6 - - - - - - - 12.5
10/23/22 63.4 1534 39.3 0547 0.00 0.00 1.97 19.7 1221 NE | 37 27.4 74 14 0 0.00 0.00 0.0 0.0 4.2 3,871 6.0 - 0.0 - - - - - - - 12.5
10/22/22 66.2 1436 48.0 0049 0.00 0.00 1.97 27.4 0949 WSW | 250 38.2 88 20 10 0.00 0.00 0.0 0.0 7.5 3,866 0.0 - 0.5 - - - - - - - 12.6
10/21/22 83.9 1457 48.5 0716 0.00 0.00 1.97 23.1 2225 W | 270 43.1 71 17 20 8.02 0.00 0.0 0.0 15.2 3,859 0.0 - 108.4 - - - - - - - 12.6
10/20/22 90.1 1533 50.1 0630 0.00 0.00 1.97 8.8 1406 ENE | 63 34.7 53 9 0 3.16 0.00 0.0 0.0 16.9 3,844 0.0 - 159.9 - - - - - - - 12.6
10/19/22 89.5 1504 47.4 0622 0.00 0.00 1.97 13.4 1929 W | 263 36.0 80 9 10 4.76 0.00 0.0 0.0 18.1 3,827 0.0 - 184.5 - - - - - - - 12.6
10/18/22 83.9 1540 49.3 0712 0.00 0.00 1.97 7.8 1457 NE | 56 44.0 90 13 20 6.29 0.00 0.0 0.0 12.1 3,809 0.0 - 85.3 - - - - - - - 12.6
10/17/22 75.8 1553 44.9 0432 0.00 0.00 1.97 10.7 1400 E | 84 48.2 100 34 0 5.42 0.00 0.0 0.0 9.4 3,797 0.1 - 46.7 - - - - - - - 12.5
10/16/22 71.3 1549 44.0 0509 0.00 0.00 1.97 9.0 1655 WNW | 288 48.8 99 51 0 0.99 0.00 0.0 0.0 5.8 3,787 1.6 - 15.0 - - - - - - - 12.5
10/15/22 86.9 1425 48.0 0059 0.00 0.00 1.97 11.3 1631 E | 87 45.5 96 20 0 4.56 0.00 0.0 0.0 15.3 3,781 0.0 - 148.0 - - - - - - - 12.6
10/14/22 92.3 1555 51.8 0726 0.00 0.00 1.97 7.6 1807 W | 268 39.7 72 9 0 1.90 0.00 0.0 0.0 18.8 3,766 0.0 - 195.9 - - - - - - - 12.6
10/13/22 90.9 1447 52.1 0708 0.00 0.00 1.97 10.3 1412 E | 83 40.2 67 10 0 2.77 0.00 0.0 0.0 19.2 3,747 0.0 - 190.4 - - - - - - - 12.6
10/12/22 90.3 1546 51.1 0623 0.00 0.00 1.97 18.6 1930 WSW | 255 42.5 66 15 0 3.70 0.00 0.0 0.0 20.0 3,728 0.0 - 206.2 - - - - - - - 12.6
10/11/22 89.4 1539 51.9 0631 0.00 0.00 1.97 11.7 1406 E | 82 40.3 62 14 0 2.76 0.00 0.0 0.0 17.8 3,708 0.0 - 174.3 - - - - - - - 12.5
10/10/22 89.4 1553 52.0 0710 0.00 0.00 1.97 13.3 1620 W | 265 36.5 57 9 10 3.55 0.00 0.0 0.0 20.5 3,690 0.0 - 201.8 - - - - - - - 12.6
10/9/22 90.6 1510 53.7 0614 0.00 0.00 1.97 12.9 1955 W | 271 39.4 60 12 20 5.37 0.00 0.0 0.0 22.8 3,670 0.0 - 241.2 - - - - - - - 12.6
10/8/22 92.2 1506 51.5 0711 0.00 0.00 1.97 11.5 1646 NW | 321 42.5 70 10 30 4.91 0.00 0.0 0.0 22.0 3,647 0.0 - 238.1 - - - - - - - 12.6
10/7/22 89.7 1549 51.9 0711 0.00 0.00 1.97 8.3 1353 NNE | 18 46.7 84 15 40 3.75 0.00 0.0 0.0 19.3 3,625 0.0 - 187.0 - - - - - - - 12.6
10/6/22 88.6 1523 52.3 0704 0.00 0.00 1.97 12.3 1414 ENE | 65 49.0 93 13 50 3.16 0.00 0.0 0.0 18.6 3,606 0.0 - 174.7 - - - - - - - 12.6
10/5/22 89.1 1457 50.8 0600 0.00 0.00 1.97 10.2 1356 S | 180 48.4 82 19 60 3.28 0.00 0.0 0.0 18.3 3,587 0.0 - 177.8 - - - - - - - 12.6
10/4/22 86.2 1501 49.8 0650 0.00 0.00 1.97 12.2 1800 W | 270 48.9 98 21 70 3.99 0.00 0.0 0.0 17.3 3,569 0.0 - 160.8 - - - - - - - 12.6
10/3/22 85.1 1448 47.5 0709 0.00 0.00 1.97 12.8 1756 WSW | 256 49.2 94 23 80 9.60 0.00 0.0 0.0 15.5 3,552 0.0 - 138.3 - - - - - - - 12.5
10/2/22 79.7 1502 46.7 0656 0.00 0.00 1.97 12.1 1453 E | 84 48.1 97 26 60 7.78 0.00 0.0 0.0 11.9 3,536 0.0 - 90.3 - - - - - - - 12.6
10/1/22 87.0 1527 50.3 0601 0.00 0.00 1.97 11.4 1535 ESE | 113 45.2 84 18 40 4.72 0.00 0.0 0.0 17.0 3,524 0.0 - 168.3 - - - - - - - 12.6
9/30/22 87.8 1613 49.4 0615 0.00 1.89 1.97 8.0 1333 NNE | 17 44.5 81 15 50 4.48 0.00 0.0 0.0 16.9 3,507 0.0 - 154.0 - - - - - - - 12.6
9/29/22 83.4 1510 53.1 0606 0.00 1.89 1.97 10.0 1445 ENE | 58 50.0 97 20 60 8.69 0.00 0.0 0.0 16.6 3,490 0.0 - 124.4 - - - - - - - 12.6
9/28/22 81.0 1539 53.9 0720 0.00 1.89 1.97 18.2 2107 W | 274 45.5 84 17 40 9.50 0.00 0.0 0.0 17.5 3,474 0.0 - 120.0 - - - - - - - 12.6
9/27/22 86.3 1556 47.0 0713 0.00 1.89 1.97 11.9 1448 ESE | 116 45.6 92 15 20 3.90 0.00 0.0 0.0 16.8 3,456 0.0 - 149.6 - - - - - - - 12.6
9/26/22 90.3 1457 53.6 0629 0.00 1.89 1.97 12.8 1506 ENE | 71 49.4 82 22 30 3.37 0.00 0.0 0.0 19.6 3,439 0.0 - 196.5 - - - - - - - 12.6
9/25/22 90.3 1535 49.5 0546 0.00 1.89 1.97 9.1 1631 NW | 317 46.9 87 16 40 2.76 0.00 0.0 0.0 19.4 3,420 0.0 - 189.5 - - - - - - - 12.6
9/24/22 89.3 1607 49.7 0656 0.00 1.89 1.97 12.2 1447 ESE | 105 44.9 88 10 50 3.13 0.00 0.0 0.0 18.4 3,400 0.0 - 185.8 - - - - - - - 12.6
9/23/22 86.4 1522 50.0 0519 0.00 1.89 1.97 9.6 1452 N | 352 49.0 98 19 60 5.22 0.00 0.0 0.0 15.7 3,382 0.0 - 145.3 - - - - - - - 12.6
9/22/22 76.9 1708 46.7 0609 0.00 1.89 1.97 8.5 2019 W | 266 49.8 100 28 70 6.24 0.00 0.0 0.0 11.7 3,366 0.0 - 64.3 - - - - - - - 12.6
9/21/22 70.6 1139 51.5 0057 0.05 1.89 1.97 12.1 1435 W | 266 52.4 96 50 50 0.15 0.00 0.0 0.0 9.2 3,355 0.0 - 6.5 - 0.01 1501 0.03 1238 0.03 1323 12.6
9/20/22 68.1 1529 47.5 0712 0.01 1.84 1.92 11.7 1333 ENE | 62 50.8 100 43 60 0.00 0.00 0.0 0.0 8.1 3,345 0.0 - 7.4 1.84 0.01 0711 0.01 0725 0.01 0810 12.6
9/19/22 66.6 1456 49.4 0713 0.38 1.83 1.91 13.8 1641 ENE | 78 53.8 100 58 70 0.00 0.00 0.0 0.0 7.4 3,337 0.0 - 0.0 1.83 0.02 1936 0.13 1944 0.28 2019 12.5
9/18/22 57.8 1856 51.2 0332 1.45 1.45 1.53 21.6 1147 ENE | 78 53.9 100 75 80 0.00 0.00 0.0 0.0 4.8 3,330 0.0 - 0.0 1.45 0.02 1814 0.13 1815 0.31 1839 12.6
9/17/22 75.8 1259 49.3 0645 0.00 0.00 0.08 19.7 1449 W | 280 45.8 93 29 90 4.69 0.00 0.0 0.0 11.4 3,325 0.0 - 42.9 - - - - - - - 12.6
9/16/22 81.6 1607 49.1 0644 0.00 0.00 0.08 15.7 1924 WNW | 288 48.1 94 28 100 9.31 0.00 0.0 0.0 15.5 3,314 0.0 - 121.8 - - - - - - - 12.6
9/15/22 77.2 1610 47.6 0641 0.00 0.00 0.08 15.6 1919 W | 259 47.0 90 31 100 7.13 0.00 0.0 0.0 12.9 3,298 0.0 - 74.4 - - - - - - - 12.6
9/14/22 74.8 1558 50.0 0546 0.00 0.00 0.08 19.5 2047 WSW | 254 46.3 86 33 80 6.04 0.00 0.0 0.0 12.0 3,285 0.0 - 52.2 - - - - - - - 12.6
9/13/22 80.2 1529 56.7 0059 0.00 0.00 0.08 18.6 1956 W | 276 47.3 71 30 60 8.31 0.00 0.0 0.0 16.6 3,273 0.0 - 99.9 - - - - - - - 12.6
9/12/22 88.6 1444 59.5 0059 0.00 0.00 0.08 18.4 1927 W | 278 43.1 55 17 40 8.59 0.00 0.0 0.0 25.0 3,257 0.0 - 242.3 - - - - - - - 12.6
9/11/22 86.1 1606 64.5 0538 0.00 0.00 0.08 14.4 1947 WSW | 252 38.4 51 11 20 8.28 0.00 0.0 0.0 24.6 3,232 0.0 - 230.8 - - - - - - - 12.6
9/10/22 89.3 1500 62.1 0520 0.00 0.00 0.08 14.5 1257 ENE | 70 40.3 47 15 0 5.57 0.00 0.0 0.0 24.8 3,207 0.0 - 235.5 - - - - - - - 12.6
9/9/22 104.6 1503 66.4 0514 0.00 0.00 0.08 13.8 1607 ENE | 71 42.3 43 11 0 3.95 7.65 0.0 0.0 33.3 3,182 0.0 - 439.8 - - - - - - - 12.6
9/8/22 104.1 1456 65.8 0630 0.00 0.00 0.08 14.8 1750 WNW | 301 44.5 51 11 10 5.71 7.70 0.0 0.0 35.6 3,149 0.0 - 494.4 - - - - - - - 12.6
9/7/22 104.4 1502 69.4 0549 0.00 0.00 0.08 16.1 1541 W | 274 45.5 51 12 20 7.01 7.92 0.0 0.0 35.8 3,113 0.0 - 499.5 - - - - - - - 12.6
9/6/22 111.4 1457 69.4 0511 0.00 0.00 0.08 16.6 1534 NE | 55 43.8 46 6 10 10.07 9.04 0.0 0.0 38.6 3,078 0.0 - 565.5 - - - - - - - 12.6
9/5/22 106.6 1548 63.3 0609 0.00 0.00 0.08 14.4 2027 WSW | 239 44.7 53 9 0 3.94 8.74 0.0 0.0 36.6 3,039 0.0 - 518.9 - - - - - - - 12.6
9/4/22 100.4 1609 56.9 0631 0.00 0.00 0.08 12.3 2103 W | 274 45.4 71 11 10 3.56 5.19 0.0 0.0 29.8 3,002 0.0 - 386.7 - - - - - - - 12.6
9/3/22 95.3 1427 63.4 0053 0.00 0.00 0.08 18.0 0424 W | 279 44.6 54 12 20 10.63 0.02 0.0 0.0 29.6 2,973 0.0 - 351.2 - - - - - - - 12.6
9/2/22 100.0 1414 53.9 0639 0.00 0.00 0.08 14.7 1952 SW | 232 37.3 52 6 0 5.16 4.55 0.0 0.0 28.0 2,943 0.0 - 354.8 - - - - - - - 12.5
9/1/22 101.0 1619 54.3 0544 0.00 0.00 0.08 14.0 1432 ESE | 103 38.5 52 6 0 3.64 6.14 0.0 0.0 28.2 2,915 0.0 - 359.6 - - - - - - - 12.6
8/31/22 98.0 1450 50.6 0559 0.00 0.08 0.08 13.4 1508 ESE | 106 35.4 65 5 0 3.04 3.51 0.0 0.0 24.7 2,887 0.0 - 309.0 - - - - - - - 12.5
8/30/22 94.6 1439 56.2 0608 0.00 0.08 0.08 19.3 1415 ENE | 61 46.1 74 15 0 2.76 0.00 0.0 0.0 24.6 2,862 0.0 - 282.4 - - - - - - - 12.6
8/29/22 94.5 1623 56.8 0627 0.00 0.08 0.08 13.1 1436 ENE | 76 46.5 78 15 0 3.04 0.00 0.0 0.0 25.6 2,838 0.0 - 296.9 - - - - - - - 12.6
8/28/22 92.5 1418 56.5 0631 0.00 0.08 0.08 15.4 1247 ENE | 71 46.2 81 12 0 2.97 0.00 0.0 0.0 24.9 2,812 0.0 - 275.6 - - - - - - - 12.6
8/27/22 94.1 1535 57.7 0625 0.00 0.08 0.08 14.2 1352 E | 96 48.2 64 20 0 3.19 0.00 0.0 0.0 25.7 2,787 0.0 - 286.0 - - - - - - - 12.6
8/26/22 95.0 1431 57.1 0513 0.00 0.08 0.08 15.3 2018 W | 264 44.9 81 10 0 3.79 0.00 0.0 0.0 27.0 2,761 0.0 - 326.3 - - - - - - - 12.6
8/25/22 95.2 1421 58.6 0623 0.00 0.08 0.08 15.3 1332 E | 86 48.3 76 14 0 2.76 0.02 0.0 0.0 26.2 2,734 0.0 - 295.1 - - - - - - - 12.6
8/24/22 99.0 1520 59.9 0637 0.00 0.08 0.08 15.3 1255 E | 79 48.1 61 13 0 3.95 4.90 0.0 0.0 29.5 2,708 0.0 - 366.9 - - - - - - - 12.6
8/23/22 96.6 1442 59.6 0638 0.00 0.08 0.08 14.2 1826 WSW | 256 51.9 83 17 10 3.32 3.42 0.0 0.0 29.4 2,679 0.0 - 355.3 - - - - - - - 12.6
8/22/22 92.4 1403 64.8 0624 0.00 0.08 0.08 20.0 1345 W | 276 50.5 73 20 20 8.61 0.00 0.0 0.0 29.0 2,649 0.0 - 336.6 - - - - - - - 12.6
8/21/22 98.0 1522 61.8 0641 0.00 0.08 0.08 21.1 1536 NNW | 328 47.6 55 17 0 5.75 3.42 0.0 0.0 30.6 2,620 0.0 - 378.7 - - - - - - - 12.6
8/20/22 103.1 1511 60.6 0550 0.00 0.08 0.08 15.6 1629 WSW | 255 46.2 59 11 0 4.89 6.94 0.0 0.0 32.5 2,590 0.0 - 428.9 - - - - - - - 12.6
8/19/22 99.8 1501 59.2 0619 0.00 0.08 0.08 15.1 1827 W | 269 38.4 48 6 0 4.64 4.98 0.0 0.0 30.6 2,557 0.0 - 384.2 - - - - - - - 12.6
8/18/22 102.0 1407 64.1 0606 0.00 0.08 0.08 22.5 1527 SSW | 210 43.2 50 10 0 5.28 6.52 0.0 0.0 32.5 2,527 0.0 - 419.4 - - - - - - - 12.6
8/17/22 99.3 1718 63.7 0634 0.00 0.08 0.08 13.2 1255 E | 90 46.0 56 14 0 5.28 3.45 0.0 0.0 29.6 2,494 0.0 - 351.4 - - - - - - - 12.6
8/16/22 103.1 1513 59.6 0555 0.00 0.08 0.08 12.8 1641 ESE | 122 43.0 65 6 0 3.80 7.26 0.0 0.0 32.5 2,465 0.0 - 435.2 - - - - - - - 12.6
8/15/22 98.9 1538 57.1 0632 0.00 0.08 0.08 15.1 1846 WSW | 245 43.6 66 6 0 4.89 5.41 0.0 0.0 30.2 2,432 0.0 - 384.2 - - - - - - - 12.6
8/14/22 96.7 1516 55.4 0616 0.00 0.08 0.08 15.9 1959 W | 263 43.6 65 9 0 4.89 1.35 0.0 0.0 28.2 2,402 0.0 - 346.4 - - - - - - - 12.6
8/13/22 94.4 1445 52.1 0626 0.00 0.08 0.08 19.9 1858 WNW | 283 42.1 80 12 0 3.88 0.00 0.0 0.0 24.9 2,374 0.0 - 293.8 - - - - - - - 12.6
8/12/22 89.9 1543 49.9 0612 0.00 0.08 0.08 16.4 1705 NNW | 330 44.1 72 19 0 3.43 0.00 0.0 0.0 21.9 2,349 0.0 - 229.5 - - - - - - - 12.6
8/11/22 90.4 1435 52.8 0623 0.00 0.08 0.08 18.5 1442 NE | 54 48.8 87 16 0 3.88 0.00 0.0 0.0 22.6 2,327 0.0 - 239.5 - - - - - - - 12.6
8/10/22 86.7 1627 54.6 0437 0.00 0.08 0.08 15.5 0121 WSW | 250 49.2 76 23 0 5.71 0.00 0.0 0.0 21.3 2,304 0.0 - 192.7 - - - - - - - 12.6
8/9/22 88.1 1345 52.6 0617 0.00 0.08 0.08 18.8 1722 ESE | 102 46.3 72 16 0 3.22 0.00 0.0 0.0 20.6 2,283 0.0 - 192.8 - - - - - - - 12.6
8/8/22 91.6 1350 51.5 0623 0.00 0.08 0.08 15.4 1931 W | 260 49.3 82 13 0 3.66 0.00 0.0 0.0 22.9 2,262 0.0 - 241.6 - - - - - - - 12.6
8/7/22 90.6 1446 52.5 0559 0.00 0.08 0.08 16.5 1222 E | 96 45.7 73 13 0 2.94 0.00 0.0 0.0 22.6 2,239 0.0 - 247.1 - - - - - - - 12.6
8/6/22 88.8 1654 54.1 0624 0.00 0.08 0.08 16.0 1156 E | 81 49.9 94 16 0 4.22 0.00 0.0 0.0 21.4 2,217 0.0 - 209.3 - - - - - - - 12.6
8/5/22 88.6 1442 61.1 0635 0.00 0.08 0.08 17.4 1331 E | 87 49.4 81 27 0 4.92 0.00 0.0 0.0 24.0 2,195 0.0 - 223.4 - - - - - - - 12.6
8/4/22 98.5 1503 65.3 0520 0.00 0.08 0.08 17.4 1355 ENE | 77 49.9 63 14 0 5.01 5.81 0.0 0.0 32.2 2,171 0.0 - 411.4 - - - - - - - 12.6
8/3/22 100.2 1507 66.4 0513 0.00 0.08 0.08 15.0 1446 E | 92 56.1 69 21 0 4.26 4.22 0.0 0.0 30.5 2,139 0.0 - 406.7 - - - - - - - 12.6
8/2/22 95.3 1559 61.3 0608 0.00 0.08 0.08 18.5 2016 WSW | 241 57.6 95 23 10 5.30 0.24 0.0 0.0 29.0 2,109 0.0 - 350.3 - - - - - - - 12.6
8/1/22 78.7 1928 63.6 0059 0.08 0.08 0.08 11.2 0428 ENE | 63 63.8 94 59 20 10.24 0.00 0.0 0.0 21.6 2,080 0.0 - 159.0 - 0.01 1545 0.04 0904 0.04 0949 12.6
7/31/22 97.0 1527 68.8 0148 0.00 0.00 0.00 16.7 1633 E | 79 57.6 70 22 0 5.40 1.48 0.0 0.0 31.2 2,058 0.0 - 388.5 - - - - - - - 12.6
7/30/22 99.3 1553 67.5 0327 0.00 0.00 0.00 15.1 1650 SE | 134 57.9 68 23 0 4.76 4.28 0.0 0.0 32.1 2,027 0.0 - 409.7 - - - - - - - 12.6
7/29/22 105.3 1515 67.5 0542 0.00 0.00 0.00 14.1 1814 W | 259 55.6 64 17 0 4.13 7.99 0.0 0.0 36.2 1,995 0.0 - 508.3 - - - - - - - 12.6
7/28/22 102.5 1415 65.8 0537 0.00 0.00 0.00 19.6 1826 W | 268 51.1 52 18 0 5.79 7.22 0.0 0.0 34.8 1,959 0.0 - 474.4 - - - - - - - 12.6
7/27/22 99.1 1517 60.5 0554 0.00 0.00 0.00 18.6 2057 WNW | 291 48.9 71 13 0 4.60 5.06 0.0 0.0 31.3 1,924 0.0 - 402.1 - - - - - - - 12.6
7/26/22 99.1 1558 62.3 0603 0.00 0.00 0.00 13.7 1324 E | 87 47.4 64 9 0 3.79 4.45 0.0 0.0 30.0 1,893 0.0 - 364.3 - - - - - - - 12.6
7/25/22 99.9 1449 61.5 0617 0.00 0.00 0.00 15.3 1322 E | 97 41.8 53 8 0 4.12 6.36 0.0 0.0 30.6 1,863 0.0 - 384.5 - - - - - - - 12.6
7/24/22 99.5 1536 58.4 0612 0.00 0.00 0.00 15.0 1550 ENE | 76 40.4 54 8 0 4.12 6.03 0.0 0.0 31.6 1,832 0.0 - 412.3 - - - - - - - 12.6
7/23/22 98.6 1616 54.4 0556 0.00 0.00 0.00 15.9 2130 WSW | 249 38.1 54 7 0 4.00 4.27 0.0 0.0 29.8 1,800 0.0 - 390.9 - - - - - - - 12.6
7/22/22 96.4 1430 63.0 0611 0.00 0.00 0.00 15.6 1435 NW | 309 37.0 37 8 10 9.28 1.45 0.0 0.0 30.2 1,770 0.0 - 364.1 - - - - - - - 12.6
7/21/22 98.9 1510 58.0 0609 0.00 0.00 0.00 22.9 2150 W | 280 35.0 46 8 0 5.28 4.28 0.0 0.0 30.2 1,740 0.0 - 382.3 - - - - - - - 12.6
7/20/22 99.7 1421 55.3 0540 0.00 0.00 0.00 14.4 1641 SW | 231 37.8 43 8 0 4.54 5.14 0.0 0.0 30.3 1,710 0.0 - 394.7 - - - - - - - 12.6
7/19/22 98.2 1442 56.2 0548 0.00 0.00 0.00 13.0 1655 WNW | 285 37.2 37 8 0 4.54 2.82 0.0 0.0 28.8 1,680 0.0 - 361.9 - - - - - - - 12.6
7/18/22 98.5 1514 59.9 0609 0.00 0.00 0.00 17.9 1420 ENE | 64 40.5 47 8 0 4.30 4.66 0.0 0.0 29.7 1,651 0.0 - 363.1 - - - - - - - 12.6
7/17/22 98.9 1554 57.0 0558 0.00 0.00 0.00 16.1 1940 W | 260 44.2 58 9 0 4.30 5.06 0.0 0.0 30.2 1,621 0.0 - 387.2 - - - - - - - 12.6
7/16/22 99.4 1405 56.0 0605 0.00 0.00 0.00 13.8 1327 SE | 124 45.8 64 10 10 3.42 5.67 0.0 0.0 29.8 1,591 0.0 - 388.1 - - - - - - - 12.6
7/15/22 97.6 1458 54.4 0435 0.00 0.00 0.00 15.0 1308 ENE | 77 44.4 70 5 20 3.44 2.72 0.0 0.0 27.3 1,561 0.0 - 335.4 - - - - - - - 12.6
7/14/22 95.3 1530 59.2 0551 0.00 0.00 0.00 17.5 1925 W | 280 51.4 82 21 30 3.32 0.04 0.0 0.0 27.8 1,534 0.0 - 324.8 - - - - - - - 12.6
7/13/22 92.5 1543 53.7 0546 0.00 0.00 0.00 16.9 1230 ESE | 108 50.8 79 20 40 4.05 0.00 0.0 0.0 24.7 1,506 0.0 - 275.8 - - - - - - - 12.6
7/12/22 97.0 1359 58.7 0551 0.00 0.00 0.00 24.4 1702 W | 280 42.6 63 9 50 2.77 1.94 0.0 0.0 28.5 1,482 0.0 - 341.1 - - - - - - - 12.6
7/11/22 101.5 1420 61.9 0544 0.00 0.00 0.00 14.7 1424 E | 97 49.7 73 13 60 2.87 7.22 0.0 0.0 32.4 1,453 0.0 - 423.7 - - - - - - - 12.6
7/10/22 96.7 1726 56.0 0600 0.00 0.00 0.00 18.1 1840 W | 273 49.2 81 12 70 3.59 3.92 0.0 0.0 28.9 1,421 0.0 - 365.2 - - - - - - - 12.7
7/9/22 88.7 1452 60.7 0323 0.00 0.00 0.00 15.4 1418 NNE | 26 50.0 69 23 80 5.20 0.00 0.0 0.0 25.1 1,392 0.0 - 250.0 - - - - - - - 12.7
7/8/22 90.5 1547 58.4 0559 0.00 0.00 0.00 17.5 1841 WSW | 249 50.2 78 19 90 3.94 0.00 0.0 0.0 24.1 1,367 0.0 - 242.4 - - - - - - - 12.6
7/7/22 84.9 1512 52.2 0516 0.00 0.00 0.00 15.6 2028 WNW | 282 50.8 95 26 100 11.15 0.00 0.0 0.0 19.2 1,343 0.0 - 169.0 - - - - - - - 12.6
7/6/22 80.8 1527 50.9 0532 0.00 0.00 0.00 17.6 1815 W | 278 52.6 98 36 100 9.59 0.00 0.0 0.0 16.5 1,324 0.0 - 115.2 - - - - - - - 12.6
7/5/22 78.8 1206 58.0 0058 0.00 0.00 0.00 16.7 1534 SW | 230 55.5 94 40 90 9.98 0.00 0.0 0.0 17.6 1,307 0.0 - 105.9 - - - - - - - 12.7
7/4/22 74.3 1646 55.3 0548 0.00 0.00 0.00 14.4 0112 W | 272 53.1 91 45 70 6.40 0.00 0.0 0.0 15.0 1,289 0.0 - 61.4 - - - - - - - 12.6
7/3/22 78.2 1546 50.4 0539 0.00 0.00 0.00 18.1 2034 W | 273 45.0 92 24 50 6.86 0.00 0.0 0.0 13.2 1,274 0.0 - 70.3 - - - - - - - 12.6
7/2/22 83.8 1333 50.0 0551 0.00 0.00 0.00 22.7 2129 W | 277 45.0 88 20 30 9.93 0.00 0.0 0.0 16.4 1,261 0.0 - 138.3 - - - - - - - 12.6
7/1/22 89.8 1500 52.3 0512 0.00 0.00 0.00 14.7 1431 E | 84 46.0 72 18 10 4.32 0.00 0.0 0.0 23.1 1,245 0.0 - 254.1 - - - - - - - 12.6
6/30/22 89.5 1617 54.7 0511 0.00 0.12 17.43 15.1 2134 WSW | 241 47.1 71 24 20 4.36 0.00 0.0 0.0 23.8 1,222 0.0 - 256.9 - - - - - - - 12.6
6/29/22 93.0 1450 51.9 0543 0.00 0.12 17.43 17.2 1302 ESE | 105 42.4 63 11 30 4.03 0.00 0.0 0.0 25.5 1,198 0.0 - 294.1 - - - - - - - 12.6
6/28/22 92.5 1451 64.4 0600 0.00 0.12 17.43 17.3 0125 W | 276 29.9 44 5 40 7.54 0.00 0.0 0.0 28.5 1,172 0.0 - 324.2 - - - - - - - 12.7
6/27/22 96.3 1438 56.0 0429 0.00 0.12 17.43 20.3 1846 W | 276 36.8 50 7 20 5.21 2.32 0.0 0.0 28.9 1,144 0.0 - 365.3 - - - - - - - 12.6
6/26/22 98.9 1440 55.2 0551 0.00 0.12 17.43 15.0 1341 E | 98 40.7 66 9 30 2.72 4.94 0.0 0.0 28.2 1,115 0.0 - 355.3 - - - - - - - 12.6
6/25/22 97.8 1441 56.6 0516 0.00 0.12 17.43 15.3 1227 ENE | 62 40.7 62 9 40 2.01 3.17 0.0 0.0 28.1 1,087 0.0 - 348.8 - - - - - - - 12.6
6/24/22 96.7 1516 57.1 0549 0.00 0.12 17.43 14.6 1441 ENE | 72 48.1 64 16 50 3.62 3.35 0.0 0.0 28.8 1,059 0.0 - 359.6 - - - - - - - 12.6
6/23/22 94.0 1209 57.3 0601 0.00 0.12 17.43 14.2 1436 NW | 305 42.1 54 13 60 5.59 0.00 0.0 0.0 28.6 1,030 0.0 - 339.1 - - - - - - - 12.7
6/22/22 99.8 1355 59.4 0507 0.00 0.12 17.43 16.6 1420 E | 89 39.5 47 7 70 4.99 5.22 0.0 0.0 31.5 1,001 0.0 - 413.5 - - - - - - - 12.7
6/21/22 95.5 1700 59.7 0103 0.00 0.12 17.43 18.7 1014 ENE | 59 34.2 52 6 80 3.42 0.29 0.0 0.0 28.7 970 0.0 - 340.7 - - - - - - - 12.7
6/20/22 87.6 1559 49.6 0551 0.00 0.12 17.43 13.7 1818 NE | 45 39.8 76 12 90 5.80 0.00 0.0 0.0 20.6 941 0.0 - 213.8 - - - - - - - 12.6
6/19/22 80.7 1452 46.0 0519 0.00 0.12 17.43 18.3 2004 W | 259 42.0 87 19 100 9.62 0.00 0.0 0.0 15.4 921 0.0 - 114.3 - - - - - - - 12.6
6/18/22 72.8 1536 44.0 0525 0.00 0.12 17.43 18.3 2049 W | 259 39.7 87 17 80 3.34 0.00 0.0 0.0 9.9 905 1.4 - 34.3 - - - - - - - 12.6
6/17/22 68.2 1439 46.2 0547 0.00 0.12 17.43 28.0 0319 W | 275 38.5 81 29 90 0.00 0.00 0.0 0.0 7.0 895 0.0 - 3.6 - - - - - - - 12.6
6/16/22 79.2 1423 48.1 0058 0.00 0.12 17.43 29.6 0035 W | 265 40.2 81 15 100 7.28 0.00 0.0 0.0 13.3 888 0.0 - 78.7 - - - - - - - 12.6
6/15/22 88.9 1414 51.0 0550 0.00 0.12 17.43 24.4 2207 WNW | 285 39.8 80 10 90 3.42 0.00 0.0 0.0 20.6 875 0.0 - 199.0 - - - - - - - 12.6
6/14/22 84.9 1510 47.6 0518 0.00 0.12 17.43 15.0 1944 W | 264 38.8 82 7 100 11.74 0.00 0.0 0.0 18.3 855 0.0 - 166.6 - - - - - - - 12.6
6/13/22 75.9 1539 46.6 0454 0.00 0.12 17.43 16.8 1946 W | 270 41.2 81 15 100 6.81 0.00 0.0 0.0 11.8 836 0.0 - 61.1 - - - - - - - 12.6
6/12/22 73.6 1158 51.6 0058 0.00 0.12 17.43 22.4 1716 WSW | 245 52.1 78 47 90 1.59 0.00 0.0 0.0 14.9 824 0.0 - 50.0 - - - - - - - 12.7
6/11/22 87.2 1424 61.8 0544 0.00 0.12 17.43 19.1 1749 WSW | 245 55.0 76 29 100 6.65 0.00 0.0 0.0 26.0 809 0.0 - 265.0 - - - - - - - 12.7
6/10/22 93.5 1539 63.3 0403 0.00 0.12 17.43 18.7 1726 NW | 304 52.0 69 19 100 8.53 0.00 0.0 0.0 29.1 784 0.0 - 339.5 - - - - - - - 12.7
6/9/22 90.1 1530 60.5 0604 0.00 0.12 17.43 22.9 1632 WNW | 283 46.0 58 15 100 8.53 0.00 0.0 0.0 26.0 754 0.0 - 271.6 - - - - - - - 12.7
6/8/22 85.5 1615 62.1 0558 0.00 0.12 17.43 20.5 1933 W | 263 46.3 58 20 100 12.82 0.00 0.0 0.0 23.2 728 0.0 - 198.7 - - - - - - - 12.7
6/7/22 86.9 1557 49.8 0545 0.00 0.12 17.43 22.4 2156 W | 269 43.7 95 16 90 5.35 0.00 0.0 0.0 20.1 705 0.0 - 193.9 - - - - - - - 12.7
6/6/22 80.7 1512 47.6 0554 0.00 0.12 17.43 13.5 1326 NNW | 346 46.7 95 18 100 9.96 0.00 0.0 0.0 16.4 685 0.0 - 124.7 - - - - - - - 12.7
6/5/22 75.7 1522 54.8 0101 0.08 0.12 17.43 18.1 1242 WSW | 242 55.7 100 42 80 5.66 0.00 0.0 0.0 13.1 669 0.0 - 52.2 0.12 0.01 0812 0.02 0709 0.03 0723 12.7
6/4/22 70.0 1353 53.9 0548 0.04 0.04 17.35 17.4 0157 W | 274 43.9 100 28 90 0.00 0.00 0.0 0.0 10.1 656 0.0 - 13.5 - 0.01 0058 0.01 0101 0.01 0101 12.7
6/3/22 76.7 1407 56.7 0609 0.00 0.00 17.31 20.9 2205 WNW | 284 46.8 73 23 100 9.08 0.00 0.0 0.0 16.5 646 0.0 - 87.4 - - - - - - - 12.7
6/2/22 85.4 1355 59.7 0616 0.00 0.00 17.31 22.1 2241 WSW | 254 40.1 57 17 100 12.59 0.00 0.0 0.0 22.7 629 0.0 - 196.4 - - - - - - - 12.7
6/1/22 88.1 1431 48.5 0513 0.00 0.00 17.31 17.1 2109 WSW | 243 38.5 72 14 80 5.22 0.00 0.0 0.0 20.7 606 0.0 - 214.4 - - - - - - - 12.6
5/31/22 81.7 1539 43.1 0527 0.00 0.08 17.31 17.0 2053 WNW | 287 33.2 78 9 90 10.54 0.00 0.0 0.0 15.9 586 1.1 - 134.1 - - - - - - - 12.6
5/30/22 74.4 1611 43.2 0550 0.00 0.08 17.31 22.2 2042 WSW | 255 35.4 70 18 70 4.88 0.00 0.0 0.0 10.8 570 0.9 - 50.1 - - - - - - - 12.6
5/29/22 71.0 1529 44.5 0548 0.00 0.08 17.31 21.0 0021 WNW | 288 39.5 85 24 80 0.27 0.00 0.0 0.0 8.8 559 0.2 - 20.6 - - - - - - - 12.6
5/28/22 68.2 1209 49.4 0101 0.00 0.08 17.31 23.8 2253 SW | 226 46.0 84 45 90 0.00 0.00 0.0 0.0 8.0 550 0.0 - 1.0 - - - - - - - 12.7
5/27/22 79.0 1138 48.3 0456 0.00 0.08 17.31 22.4 1858 NW | 307 47.8 93 25 100 7.70 0.00 0.0 0.0 12.9 542 0.0 - 85.1 - - - - - - - 12.7
5/26/22 83.9 1318 52.8 0546 0.00 0.08 17.31 19.7 2117 W | 272 44.6 79 24 100 13.07 0.00 0.0 0.0 19.3 529 0.0 - 157.1 - - - - - - - 12.7
5/25/22 95.0 1446 57.2 0521 0.00 0.08 17.31 17.2 1536 WNW | 282 41.6 62 11 80 2.98 0.00 0.0 0.0 28.4 510 0.0 - 340.4 - - - - - - - 12.7
5/24/22 92.2 1637 53.2 0555 0.00 0.08 17.31 13.5 1918 W | 266 41.3 72 9 90 3.17 0.00 0.0 0.0 25.0 482 0.0 - 279.7 - - - - - - - 12.7
5/23/22 85.3 1416 55.5 0556 0.00 0.08 17.31 19.5 1955 WSW | 251 41.2 55 16 100 12.07 0.00 0.0 0.0 21.2 456 0.0 - 187.5 - - - - - - - 12.7
5/22/22 82.9 1506 51.0 0550 0.00 0.08 17.31 18.9 1922 WSW | 238 36.4 57 12 100 11.03 0.00 0.0 0.0 18.9 435 0.0 - 156.2 - - - - - - - 12.7
5/21/22 82.7 1508 43.4 0534 0.00 0.08 17.31 16.4 2056 W | 260 29.2 56 7 100 10.46 0.00 0.0 0.0 17.0 416 0.9 - 144.9 - - - - - - - 12.7
5/20/22 73.4 1703 44.9 0523 0.00 0.08 17.31 26.6 1008 ENE | 75 19.8 60 10 90 5.46 0.00 0.0 0.0 11.6 399 0.1 - 47.6 - - - - - - - 12.6
5/19/22 81.6 1447 50.6 0101 0.00 0.08 17.31 25.8 1805 NNW | 328 36.2 51 12 100 10.78 0.00 0.0 0.0 19.5 388 0.0 - 141.2 - - - - - - - 12.7
5/18/22 88.3 1432 54.5 0601 0.00 0.08 17.31 24.2 1820 WNW | 299 44.3 64 17 100 7.84 0.00 0.0 0.0 22.5 368 0.0 - 221.6 - - - - - - - 12.7
5/17/22 83.6 1521 48.8 0603 0.00 0.08 17.31 19.0 1835 W | 280 42.4 85 16 100 10.58 0.00 0.0 0.0 17.3 346 0.0 - 147.8 - - - - - - - 12.7
5/16/22 78.6 1543 51.4 0606 0.00 0.08 17.31 21.2 0139 W | 260 43.0 74 21 80 7.86 0.00 0.0 0.0 14.1 328 0.0 - 84.0 - - - - - - - 12.7
5/15/22 82.1 1324 50.6 0552 0.00 0.08 17.31 26.1 2220 W | 276 44.9 92 24 60 10.47 0.00 0.0 0.0 16.5 314 0.0 - 123.6 - - - - - - - 12.7
5/14/22 85.1 1449 47.5 0437 0.00 0.08 17.31 13.2 1641 NW | 325 46.2 96 15 40 10.81 0.00 0.0 0.0 17.8 298 0.0 - 155.3 - - - - - - - 12.7
5/13/22 73.4 1451 44.5 0455 0.00 0.08 17.31 18.8 2020 WSW | 252 46.7 87 41 20 6.21 0.00 0.0 0.0 11.7 280 0.4 - 49.7 - - - - - - - 12.7
5/12/22 66.3 1604 39.2 0614 0.00 0.08 17.31 20.1 1911 W | 276 35.9 82 30 0 0.00 0.00 0.0 0.0 5.0 268 5.7 - 0.0 - - - - - - - 12.7
5/11/22 65.5 1621 35.8 0351 0.00 0.08 17.31 19.2 2053 W | 275 34.0 92 22 0 0.00 0.00 0.0 0.0 4.7 263 7.7 - 0.0 - - - - - - - 12.6
5/10/22 57.2 1255 36.3 0421 0.03 0.08 17.31 17.9 1416 E | 79 33.5 87 31 0 0.00 0.00 0.0 0.0 0.5 259 14.0 - 0.0 - 0.01 1845 0.02 1714 0.02 1759 12.6
5/9/22 56.5 1329 38.7 0216 0.00 0.05 17.28 23.4 1503 W | 266 32.5 86 26 0 0.00 0.00 0.0 0.0 0.6 258 12.5 - 0.0 - - - - - - - 12.6
5/8/22 53.6 1326 38.7 2110 0.05 0.05 17.28 29.3 1127 W | 274 34.2 88 43 10 0.00 0.00 0.0 0.0 0.2 257 15.2 - 0.0 - 0.01 1745 0.04 1746 0.04 1831 12.6
5/7/22 65.8 1518 43.1 0057 0.00 0.00 17.23 30.6 0054 W | 276 40.1 85 34 20 0.00 0.00 0.0 0.0 5.2 257 1.1 - 0.0 - - - - - - - 12.6
5/6/22 68.3 1543 48.5 0037 0.00 0.00 17.23 19.8 2129 WNW | 301 48.2 94 44 30 0.00 0.00 0.0 0.0 7.2 252 0.0 - 3.0 - - - - - - - 12.6
5/5/22 70.6 1301 53.0 0011 0.00 0.00 17.23 19.5 0537 W | 266 41.9 86 22 40 0.21 0.00 0.0 0.0 9.9 245 0.0 - 9.4 - - - - - - - 12.7
5/4/22 85.1 1522 46.8 0614 0.00 0.00 17.23 14.7 1653 WNW | 282 37.7 70 15 50 10.52 0.00 0.0 0.0 17.3 235 0.0 - 162.4 - - - - - - - 12.6
5/3/22 78.8 1638 38.2 0535 0.00 0.00 17.23 12.7 1154 NE | 52 31.9 71 14 30 7.30 0.00 0.0 0.0 11.8 218 5.9 - 79.2 - - - - - - - 12.6
5/2/22 63.9 1502 44.4 0055 0.00 0.00 17.23 24.9 0545 W | 279 34.5 80 27 10 0.00 0.00 0.0 0.0 5.1 206 0.2 - 0.0 - - - - - - - 12.7
5/1/22 76.8 1704 41.2 0514 0.00 0.00 17.23